Sells, Arizona
Current Conditions -  °F | °C
As of 6:50 PM on Wednesday 26 Nov 2014 (Local Time) from KRYN Reporting Station
Clear Clear  
Wind Chill: 63°   Ceiling: Unl
Heat Index: 63°   Visibility: 10mi
Dew Point: 23°   Wind: 7mph
Humidity: 22%   Direction: 220°SW
Pressure: 30.23"   Gusts: NA
Location:  31.91°N, 111.88°W
Report Text: KRYN 270150Z 22006KT 10SM CLR 17/M05 A3023
Loading
Personal Weather Stations






























Interactive Weather Map New forecast layout! Learn more

10-Day Weather Forecast

Advertisements
Track Severe Weather on mobile